Vidfoss — V2QK4 — position and weather

sailwx.info

Track history (hours):
 
Tides and Currents Weather Stations Pressure Air Temp Water Temp Dewpoint Dewpoint Depression Visibility Wind Speed Wind Dir Waves Ship Positions

Vidfoss

Last reported at 2017-May-28 08:30 UTC. Time now 2017-May-28 08:42 UTC.
Position N 64°38' E 010°44'.

Length 93 m; draft 4.2 m.

Type: Cargo ship. MMSI: 305846000.

Date/timePositionNaut miles runAvg speedWind from/ knotsBaromVisibWave heightAir tempDewpointWater temp
2017-May-28 08:30N 64°38' E 010°44'611.9
2017-May-28 08:00N 64°34' E 010°35'612.2
2017-May-28 07:30N 64°29' E 010°27'611.9
2017-May-28 07:00N 64°23' E 010°25'612.1
2017-May-28 06:30N 64°17' E 010°20'2 2.9
2017-May-28 05:39N 64°15' E 010°18'213.0
2017-May-28 05:30N 64°14' E 010°14'713.1
2017-May-28 04:59N 64°08' E 010°06'613.1
2017-May-28 04:30N 64°05' E 009°54'612.0
2017-May-28 04:01N 63°59' E 009°47'712.5
2017-May-28 03:29N 63°53' E 009°44'612.6
2017-May-28 03:00N 63°48' E 009°35'1 2.9
2017-May-28 02:31N 63°49' E 009°38'0 0.0
2017-May-28 01:59N 63°49' E 009°38'0 0.0
2017-May-28 01:30N 63°49' E 009°38'0 0.0
2017-May-28 01:00N 63°49' E 009°38'0 0.0
2017-May-28 00:30N 63°49' E 009°38'0 0.0
2017-May-28 00:00N 63°49' E 009°38'0 0.0
2017-May-27 23:31N 63°49' E 009°38'0 0.0
2017-May-27 23:00N 63°49' E 009°38'0 0.0
2017-May-27 22:30N 63°49' E 009°38'0 0.0
2017-May-27 22:00N 63°49' E 009°38'0 0.3
2017-May-27 21:30N 63°49' E 009°38'510.8
2017-May-27 21:00N 63°44' E 009°32'611.4
2017-May-27 20:30N 63°39' E 009°29'611.9
2017-May-27 20:00N 63°34' E 009°21'612.8
2017-May-27 19:30N 63°31' E 009°08'612.8
2017-May-27 19:00N 63°28' E 008°55'612.5
2017-May-27 18:30N 63°26' E 008°42'612.4
2017-May-27 18:00N 63°23' E 008°30'612.2
2017-May-27 17:30N 63°20' E 008°19'612.4
2017-May-27 17:00N 63°16' E 008°07'612.5
2017-May-27 16:30N 63°13' E 007°55'612.2
2017-May-27 16:00N 63°10' E 007°44'611.6
2017-May-27 15:31N 63°04' E 007°41'611.6
2017-May-27 15:00N 62°58' E 007°44'0 0.2
2017-May-27 14:30N 62°58' E 007°44'8 8.0
2017-May-27 13:31N 63°06' E 007°41'5 9.5
2017-May-27 13:00N 63°06' E 007°30'611.8
2017-May-27 12:30N 63°03' E 007°19'611.8
2017-May-27 12:00N 63°01' E 007°06'612.2
2017-May-27 11:30N 62°59' E 006°54'611.9
2017-May-27 11:00N 62°54' E 006°46'611.9
2017-May-27 10:30N 62°49' E 006°39'611.9
2017-May-27 10:00N 62°44' E 006°31'612.0
2017-May-27 09:30N 62°39' E 006°24'612.7
2017-May-27 09:00N 62°35' E 006°14'611.6
2017-May-27 08:30N 62°30' E 006°10'1 2.4
2017-May-27 08:00N 62°29' E 006°11'0 0.0
2017-May-27 07:30N 62°29' E 006°11'0 0.1
2017-May-27 07:00N 62°29' E 006°12'510.2
2017-May-27 06:30N 62°27' E 006°01'612.5
2017-May-27 06:00N 62°27' E 005°48'612.6
2017-May-27 05:30N 62°26' E 005°34'612.5
2017-May-27 05:00N 62°23' E 005°23'612.7
2017-May-27 04:30N 62°17' E 005°15'612.8
2017-May-27 04:00N 62°13' E 005°06'511.0
2017-May-27 03:30N 62°07' E 005°05'610.8
2017-May-27 03:00N 62°02' E 005°09'611.3
2017-May-27 02:30N 61°56' E 005°08'5 9.3
2017-May-27 02:00N 61°52' E 005°13'4 7.4
2017-May-27 01:30N 61°49' E 005°10'612.8
2017-May-27 01:00N 61°45' E 004°60'612.1
2017-May-27 00:30N 61°39' E 004°59'510.9
2017-May-27 00:00N 61°34' E 004°59'611.6
2017-May-26 23:30N 61°28' E 004°57'612.6
2017-May-26 23:00N 61°23' E 004°49'612.4
2017-May-26 22:30N 61°17' E 004°46'611.5
2017-May-26 21:59N 61°11' E 004°44'612.1
2017-May-26 21:30N 61°05' E 004°44'612.3
2017-May-26 21:00N 60°59' E 004°46'612.8
2017-May-26 20:30N 60°53' E 004°46'612.2
2017-May-26 20:00N 60°46' E 004°46'613.0
2017-May-26 19:30N 60°40' E 004°51'612.8
2017-May-26 19:00N 60°34' E 004°55'612.8
2017-May-26 18:30N 60°28' E 005°00'612.3
2017-May-26 18:00N 60°24' E 005°08'612.8
2017-May-26 17:30N 60°18' E 005°12'611.3
2017-May-26 17:00N 60°12' E 005°13'612.4
2017-May-26 16:30N 60°06' E 005°18'612.5
2017-May-26 16:00N 60°00' E 005°21'612.1
2017-May-26 15:30N 59°56' E 005°29'612.5
2017-May-26 15:00N 59°50' E 005°33'611.4
2017-May-26 14:30N 59°44' E 005°30'1212.1
2017-May-26 13:30N 59°35' E 005°15'611.5
2017-May-26 13:00N 59°29' E 005°13'610.9
2017-May-26 12:30N 59°24' E 005°16'5 9.5
2017-May-26 12:00N 59°20' E 005°19'612.1
2017-May-26 11:30N 59°14' E 005°21'612.6
2017-May-26 11:00N 59°08' E 005°21'612.5
2017-May-26 10:31N 59°01' E 005°20'612.0
2017-May-26 10:00N 58°55' E 005°21'611.3
2017-May-26 09:31N 58°50' E 005°22'611.9
2017-May-26 09:00N 58°44' E 005°23'611.6
2017-May-26 08:30N 58°38' E 005°24'611.8
2017-May-26 08:00N 58°32' E 005°24'612.0
2017-May-26 07:30N 58°26' E 005°25'611.9
2017-May-26 07:00N 58°20' E 005°26'31512.1
2017-May-25 04:55N 53°06' E 004°32'613.5
2017-May-25 04:29N 53°01' E 004°31'613.8
2017-May-25 04:01N 52°54' E 004°31'713.8
2017-May-25 03:30N 52°47' E 004°30'713.5
2017-May-25 03:00N 52°40' E 004°30'713.6
2017-May-25 02:30N 52°34' E 004°30'611.8
2017-May-25 02:00N 52°28' E 004°33'2 4.0
2017-May-25 01:30N 52°28' E 004°36'2 3.6
2017-May-25 01:00N 52°28' E 004°39'1 1.1
2017-May-25 00:30N 52°28' E 004°40'0 0.0
2017-May-25 00:00N 52°28' E 004°40'0 0.0
2017-May-24 23:30N 52°28' E 004°40'0 0.0
2017-May-24 22:59N 52°28' E 004°40'0 0.0
2017-May-24 22:29N 52°28' E 004°40'0 0.0
2017-May-24 21:59N 52°28' E 004°40'0 0.0
2017-May-24 21:30N 52°28' E 004°40'0 0.0
2017-May-24 21:00N 52°28' E 004°40'0 0.0
2017-May-24 20:30N 52°28' E 004°40'0 0.0
2017-May-24 20:01N 52°28' E 004°40'0 0.0
2017-May-24 19:25N 52°28' E 004°40'0 0.0
2017-May-24 18:58N 52°28' E 004°40'0 0.0
2017-May-24 18:28N 52°28' E 004°40'0 0.0
2017-May-24 17:59N 52°28' E 004°40'0 0.0
2017-May-24 17:29N 52°28' E 004°40'0 0.0
2017-May-24 16:59N 52°28' E 004°40'0 0.0
2017-May-24 16:30N 52°28' E 004°40'0 0.0
2017-May-24 16:00N 52°28' E 004°40'0 0.0
2017-May-24 15:30N 52°28' E 004°40'0 0.0
2017-May-24 14:58N 52°28' E 004°40'0 0.0
2017-May-24 14:28N 52°28' E 004°40'0 0.0
2017-May-24 13:26N 52°28' E 004°40'0 0.0
2017-May-24 12:59N 52°28' E 004°40'0 0.0
2017-May-24 12:29N 52°28' E 004°40'0 0.0
2017-May-24 11:59N 52°28' E 004°40'0 0.0
2017-May-24 11:30N 52°28' E 004°40'0 0.0
2017-May-24 11:00N 52°28' E 004°40'0 0.0
2017-May-24 10:30N 52°28' E 004°40'0 0.0
2017-May-24 09:58N 52°28' E 004°40'0 0.0
2017-May-24 09:28N 52°28' E 004°40'0 0.0
2017-May-24 08:58N 52°28' E 004°40'0 0.0
2017-May-24 08:29N 52°28' E 004°40'0 0.0
2017-May-24 07:59N 52°28' E 004°40'0 0.0
2017-May-24 07:29N 52°28' E 004°40'0 0.0
2017-May-24 07:00N 52°28' E 004°40'0 0.0
2017-May-24 06:30N 52°28' E 004°40'0 0.0
2017-May-24 06:00N 52°28' E 004°40'0 0.0
2017-May-24 05:28N 52°28' E 004°40'0 0.0
2017-May-24 04:58N 52°28' E 004°40'0 0.0
2017-May-24 04:28N 52°28' E 004°40'0 0.0
2017-May-24 03:59N 52°28' E 004°40'0 0.0
2017-May-24 03:29N 52°28' E 004°40'0 0.0
2017-May-24 02:59N 52°28' E 004°40'0 0.0
2017-May-24 02:29N 52°28' E 004°40'0 0.0
2017-May-24 02:00N 52°28' E 004°40'0 0.0
2017-May-24 01:30N 52°28' E 004°40'0 0.0
2017-May-24 01:00N 52°28' E 004°40'0 0.0
2017-May-24 00:28N 52°28' E 004°40'0 0.0
2017-May-23 23:58N 52°28' E 004°40'0 0.0
2017-May-23 23:28N 52°28' E 004°40'0 0.0
2017-May-23 22:59N 52°28' E 004°40'0 0.0
2017-May-23 22:29N 52°28' E 004°40'0 0.0
2017-May-23 21:59N 52°28' E 004°40'0 0.0
2017-May-23 21:30N 52°28' E 004°40'0 0.0
2017-May-23 21:00N 52°28' E 004°40'0 0.0
2017-May-23 20:30N 52°28' E 004°40'0 0.0
2017-May-23 19:58N 52°28' E 004°40'0 0.0
2017-May-23 19:30N 52°28' E 004°40'0 0.0
2017-May-23 19:00N 52°28' E 004°40'0 0.0
2017-May-23 18:30N 52°28' E 004°40'0 0.0
2017-May-23 18:00N 52°28' E 004°40'0 0.0
2017-May-23 17:30N 52°28' E 004°40'0 0.0
2017-May-23 17:00N 52°28' E 004°40'1 1.9
2017-May-23 16:30N 52°28' E 004°38'1 2.9
2017-May-23 16:00N 52°28' E 004°36'2 4.8
2017-May-23 15:30N 52°28' E 004°32'5 9.0
2017-May-23 15:00N 52°32' E 004°29'611.3
2017-May-23 14:30N 52°38' E 004°30'1110.8
2017-May-23 13:30N 52°48' E 004°31'510.3
2017-May-23 13:00N 52°54' E 004°31'810.7
2017-May-23 12:18N 53°01' E 004°32'512.0
2017-May-23 11:55N 53°06' E 004°33'710.7
2017-May-23 11:13N 53°13' E 004°29'32112.1
2017-May-22 08:45N 58°33' E 005°11'312.2
2017-May-22 08:30N 58°35' E 005°12'611.9
2017-May-22 08:01N 58°41' E 005°13'612.0
2017-May-22 07:30N 58°47' E 005°14'611.8
2017-May-22 07:00N 58°53' E 005°16'612.0
2017-May-22 06:30N 58°59' E 005°18'612.0
2017-May-22 06:00N 59°05' E 005°20'612.0
2017-May-22 05:30N 59°11' E 005°20'612.1
2017-May-22 05:00N 59°17' E 005°20'611.8
2017-May-22 04:30N 59°23' E 005°18'611.4
2017-May-22 04:00N 59°28' E 005°13'611.7
2017-May-22 03:30N 59°34' E 005°14'612.0
2017-May-22 03:00N 59°39' E 005°20'611.9
2017-May-22 02:30N 59°43' E 005°28'611.3
2017-May-22 02:00N 59°49' E 005°33'611.9
2017-May-22 01:30N 59°54' E 005°31'612.0
2017-May-22 01:00N 59°59' E 005°22'611.4
2017-May-22 00:30N 60°04' E 005°19'612.1
2017-May-22 00:00N 60°10' E 005°15'611.6
2017-May-21 23:30N 60°15' E 005°09'510.7
2017-May-21 22:59N 60°20' E 005°11'4 7.6
2017-May-21 22:30N 60°24' E 005°14'0 0.2
2017-May-21 21:59N 60°24' E 005°14'0 0.0
2017-May-21 21:30N 60°24' E 005°14'0 0.0
2017-May-21 21:00N 60°24' E 005°14'0 0.1
2017-May-21 20:30N 60°24' E 005°14'4 7.7
2017-May-21 20:00N 60°24' E 005°06'611.4
2017-May-21 19:30N 60°29' E 004°59'611.5
2017-May-21 19:00N 60°34' E 004°55'611.8
2017-May-21 18:30N 60°40' E 004°51'611.9
2017-May-21 18:00N 60°46' E 004°47'611.2
2017-May-21 17:29N 60°51' E 004°45'611.4
2017-May-21 17:00N 60°57' E 004°45'611.3
2017-May-21 16:30N 61°02' E 004°44'611.2
2017-May-21 16:00N 61°08' E 004°45'611.5
2017-May-21 15:30N 61°14' E 004°43'611.4
2017-May-21 15:00N 61°19' E 004°48'611.4
2017-May-21 14:30N 61°25' E 004°51'1010.4
2017-May-21 13:29N 61°34' E 004°58'511.0
2017-May-21 13:00N 61°40' E 004°58'511.1
2017-May-21 12:30N 61°45' E 005°01'611.3
2017-May-21 12:00N 61°49' E 005°10'4 7.7
2017-May-21 11:30N 61°52' E 005°15'510.1
2017-May-21 11:00N 61°56' E 005°07'611.2
2017-May-21 10:30N 62°01' E 005°09'612.2
2017-May-21 09:59N 62°07' E 005°05'5 9.8
2017-May-21 09:30N 62°12' E 005°06'510.1
2017-May-21 09:00N 62°15' E 005°15'510.7
2017-May-21 08:30N 62°17' E 005°25'611.8
2017-May-21 08:00N 62°19' E 005°38'5 9.0
2017-May-21 07:30N 62°21' E 005°46'611.4
2017-May-21 07:00N 62°26' E 005°54'611.8
2017-May-21 06:30N 62°27' E 006°06'2 3.4
2017-May-21 06:00N 62°28' E 006°08'0 0.0
2017-May-21 05:30N 62°28' E 006°08'0 0.0
2017-May-21 05:00N 62°28' E 006°08'1 2.0
2017-May-21 04:29N 62°27' E 006°09'1 2.9
2017-May-21 04:00N 62°28' E 006°08'0 0.1
2017-May-21 03:30N 62°28' E 006°08'0 0.0
2017-May-21 03:00N 62°28' E 006°08'2 3.4
2017-May-21 02:30N 62°29' E 006°11'1 2.5
2017-May-21 01:59N 62°29' E 006°14'0 0.2
2017-May-21 01:30N 62°29' E 006°13'4 7.0
2017-May-21 01:00N 62°29' E 006°21'0 0.4
2017-May-21 00:30N 62°28' E 006°21'0 0.0
2017-May-21 00:00N 62°28' E 006°21'0 0.0
2017-May-20 23:30N 62°28' E 006°21'1 1.3
2017-May-20 23:00N 62°29' E 006°22'2 3.2
2017-May-20 22:29N 62°30' E 006°24'0 0.0
2017-May-20 22:00N 62°30' E 006°24'0 0.0
2017-May-20 21:30N 62°30' E 006°24'0 0.0
2017-May-20 21:00N 62°30' E 006°24'0 0.0
2017-May-20 20:30N 62°30' E 006°24'0 0.0
2017-May-20 20:00N 62°30' E 006°24'0 0.0
2017-May-20 19:30N 62°30' E 006°24'0 0.0
2017-May-20 19:00N 62°30' E 006°24'0 0.0
2017-May-20 18:30N 62°30' E 006°24'0 0.0
2017-May-20 18:00N 62°30' E 006°24'0 0.5
2017-May-20 17:30N 62°30' E 006°24'510.1
2017-May-20 17:00N 62°29' E 006°13'4 8.8
2017-May-20 16:30N 62°34' E 006°11'612.5
2017-May-20 16:00N 62°38' E 006°21'612.5
2017-May-20 15:30N 62°43' E 006°29'612.9
2017-May-20 15:00N 62°48' E 006°37'612.7
2017-May-20 14:30N 62°53' E 006°45'5 5.4
2017-May-20 13:30N 62°53' E 006°57'0 0.0
2017-May-20 13:00N 62°53' E 006°57'0 0.0
2017-May-20 12:30N 62°53' E 006°57'0 0.2
2017-May-20 12:00N 62°53' E 006°57'4 8.0
2017-May-20 11:30N 62°56' E 006°51'510.9
2017-May-20 11:00N 62°60' E 006°59'612.4
2017-May-20 10:30N 63°02' E 007°12'612.6
2017-May-20 10:00N 63°04' E 007°25'612.5
2017-May-20 09:30N 63°08' E 007°36'612.7
2017-May-20 09:00N 63°11' E 007°48'713.0
2017-May-20 08:30N 63°15' E 008°01'713.3
2017-May-20 08:00N 63°18' E 008°14'612.7
2017-May-20 07:29N 63°23' E 008°24'612.9
2017-May-20 07:00N 63°25' E 008°36'712.9
2017-May-20 06:30N 63°27' E 008°50'613.0
2017-May-20 06:00N 63°30' E 009°04'612.6
2017-May-20 05:30N 63°33' E 009°16'611.9
2017-May-20 05:00N 63°39' E 009°16'612.0
2017-May-20 04:30N 63°45' E 009°16'611.8
2017-May-20 04:00N 63°51' E 009°19'612.6
2017-May-20 03:30N 63°56' E 009°27'612.3
2017-May-20 03:00N 64°02' E 009°33'612.1
2017-May-20 02:30N 64°07' E 009°40'612.0
2017-May-20 02:00N 64°12' E 009°47'611.9
2017-May-20 01:29N 64°17' E 009°55'612.0
2017-May-20 01:00N 64°21' E 010°04'612.0
2017-May-20 00:30N 64°26' E 010°14'612.2
2017-May-20 00:00N 64°30' E 010°24'612.7
2017-May-19 23:30N 64°35' E 010°33'612.4
2017-May-19 23:00N 64°40' E 010°43'612.5
2017-May-19 22:30N 64°43' E 010°55'612.5
2017-May-19 22:00N 64°47' E 011°05'611.3
2017-May-19 21:30N 64°52' E 011°14'0 0.0
2017-May-19 21:00N 64°52' E 011°14'0 0.0
2017-May-19 20:30N 64°52' E 011°14'0 0.0
2017-May-19 20:00N 64°52' E 011°14'1 2.3
2017-May-19 19:30N 64°52' E 011°17'611.6
2017-May-19 19:00N 64°56' E 011°27'611.8
2017-May-19 18:30N 65°00' E 011°37'611.7
2017-May-19 18:00N 65°05' E 011°46'612.1
2017-May-19 17:30N 65°10' E 011°51'612.2
2017-May-19 17:00N 65°16' E 011°57'612.1
2017-May-19 16:30N 65°21' E 012°03'510.6
2017-May-19 16:00N 65°26' E 011°56'611.6
2017-May-19 15:30N 65°31' E 012°02'612.0
2017-May-19 15:00N 65°36' E 012°10'1212.3
2017-May-19 14:00N 65°47' E 012°20'612.4
2017-May-19 13:30N 65°54' E 012°22'612.0
2017-May-19 13:00N 65°59' E 012°29'612.4
2017-May-19 12:30N 66°04' E 012°38'612.4
2017-May-19 12:00N 66°09' E 012°48'612.3
2017-May-19 11:30N 66°14' E 012°54'612.4
2017-May-19 11:00N 66°20' E 012°57'712.5
2017-May-19 10:28N 66°27' E 012°59'611.8
2017-May-19 10:00N 66°32' E 012°58'510.2
2017-May-19 09:30N 66°37' E 013°04'612.5
2017-May-19 09:00N 66°43' E 013°10'612.5
2017-May-19 08:29N 66°49' E 013°15'611.7
2017-May-19 08:00N 66°53' E 013°24'510.5
2017-May-19 07:30N 66°58' E 013°30'612.0
2017-May-19 07:00N 67°01' E 013°43'612.0
2017-May-19 06:30N 67°05' E 013°56'611.8
2017-May-19 06:00N 67°10' E 014°03'612.1
2017-May-19 05:30N 67°15' E 014°11'612.4
2017-May-19 05:00N 67°20' E 014°20'611.9
2017-May-19 04:30N 67°25' E 014°27'612.3
2017-May-19 04:00N 67°31' E 014°21'612.4
2017-May-19 03:30N 67°38' E 014°19'612.0
2017-May-19 03:00N 67°43' E 014°16'612.3
2017-May-19 02:30N 67°49' E 014°23'612.2
2017-May-19 02:00N 67°54' E 014°30'612.4
2017-May-19 01:30N 67°60' E 014°37'612.3
2017-May-19 00:59N 68°06' E 014°45'612.0
2017-May-19 00:30N 68°11' E 014°52'612.4
2017-May-19 00:00N 68°17' E 014°58'612.0
2017-May-18 23:30N 68°22' E 015°03'612.6
2017-May-18 23:00N 68°28' E 015°12'4 8.9
2017-May-18 22:30N 68°32' E 015°09'611.9
2017-May-18 22:00N 68°37' E 015°18'511.1
2017-May-18 21:30N 68°42' E 015°25'0 0.1
2017-May-18 21:00N 68°42' E 015°25'0 0.0
2017-May-18 20:30N 68°42' E 015°25'0 0.0
2017-May-18 20:00N 68°42' E 015°25'0 0.0
2017-May-18 19:30N 68°42' E 015°25'0 0.0
2017-May-18 19:00N 68°42' E 015°25'0 0.0
2017-May-18 18:30N 68°42' E 015°25'0 0.0
2017-May-18 17:59N 68°42' E 015°25'0 0.0
2017-May-18 17:29N 68°42' E 015°25'0 0.0
2017-May-18 17:00N 68°42' E 015°25'1 2.5
2017-May-18 16:30N 68°43' E 015°26'612.0
2017-May-18 15:59N 68°49' E 015°27'612.1
2017-May-18 15:30N 68°55' E 015°35'5 9.7
2017-May-18 15:00N 68°59' E 015°43'5 9.8
2017-May-18 14:30N 68°59' E 015°56'1211.7
2017-May-18 13:30N 68°53' E 016°25'510.4
2017-May-18 13:00N 68°53' E 016°39'611.9
2017-May-18 12:30N 68°56' E 016°54'611.9
2017-May-18 12:00N 68°59' E 017°08'510.9
2017-May-18 11:30N 69°03' E 017°20'511.0
2017-May-18 11:00N 69°06' E 017°31'611.5
2017-May-18 10:29N 69°09' E 017°46'511.4
2017-May-18 10:00N 69°11' E 018°00'5 9.5
2017-May-18 09:30N 69°16' E 017°58'510.6
2017-May-18 09:00N 69°21' E 018°04'  
Track history (hours):
 
Tides and Currents Weather Stations Pressure Air Temp Water Temp Dewpoint Dewpoint Depression Visibility Wind Speed Wind Dir Waves Ship Positions

Vidfoss

Last reported at 2017-May-28 08:30 UTC. Time now 2017-May-28 08:42 UTC.
Position N 64°38' E 010°44'.

Length 93 m; draft 4.2 m.

Type: Cargo ship. MMSI: 305846000.

Date/timePositionNaut miles runAvg speedWind from/ knotsBaromVisibWave heightAir tempDewpointWater temp
2017-May-28 08:30N 64°38' E 010°44'611.9
2017-May-28 08:00N 64°34' E 010°35'612.2
2017-May-28 07:30N 64°29' E 010°27'611.9
2017-May-28 07:00N 64°23' E 010°25'612.1
2017-May-28 06:30N 64°17' E 010°20'2 2.9
2017-May-28 05:39N 64°15' E 010°18'213.0
2017-May-28 05:30N 64°14' E 010°14'713.1
2017-May-28 04:59N 64°08' E 010°06'613.1
2017-May-28 04:30N 64°05' E 009°54'612.0
2017-May-28 04:01N 63°59' E 009°47'712.5
2017-May-28 03:29N 63°53' E 009°44'612.6
2017-May-28 03:00N 63°48' E 009°35'1 2.9
2017-May-28 02:31N 63°49' E 009°38'0 0.0
2017-May-28 01:59N 63°49' E 009°38'0 0.0
2017-May-28 01:30N 63°49' E 009°38'0 0.0
2017-May-28 01:00N 63°49' E 009°38'0 0.0
2017-May-28 00:30N 63°49' E 009°38'0 0.0
2017-May-28 00:00N 63°49' E 009°38'0 0.0
2017-May-27 23:31N 63°49' E 009°38'0 0.0
2017-May-27 23:00N 63°49' E 009°38'0 0.0
2017-May-27 22:30N 63°49' E 009°38'0 0.0
2017-May-27 22:00N 63°49' E 009°38'0 0.3
2017-May-27 21:30N 63°49' E 009°38'510.8
2017-May-27 21:00N 63°44' E 009°32'611.4
2017-May-27 20:30N 63°39' E 009°29'611.9
2017-May-27 20:00N 63°34' E 009°21'612.8
2017-May-27 19:30N 63°31' E 009°08'612.8
2017-May-27 19:00N 63°28' E 008°55'612.5
2017-May-27 18:30N 63°26' E 008°42'612.4
2017-May-27 18:00N 63°23' E 008°30'612.2
2017-May-27 17:30N 63°20' E 008°19'612.4
2017-May-27 17:00N 63°16' E 008°07'612.5
2017-May-27 16:30N 63°13' E 007°55'612.2
2017-May-27 16:00N 63°10' E 007°44'611.6
2017-May-27 15:31N 63°04' E 007°41'611.6
2017-May-27 15:00N 62°58' E 007°44'0 0.2
2017-May-27 14:30N 62°58' E 007°44'8 8.0
2017-May-27 13:31N 63°06' E 007°41'5 9.5
2017-May-27 13:00N 63°06' E 007°30'611.8
2017-May-27 12:30N 63°03' E 007°19'611.8
2017-May-27 12:00N 63°01' E 007°06'612.2
2017-May-27 11:30N 62°59' E 006°54'611.9
2017-May-27 11:00N 62°54' E 006°46'611.9
2017-May-27 10:30N 62°49' E 006°39'611.9
2017-May-27 10:00N 62°44' E 006°31'612.0
2017-May-27 09:30N 62°39' E 006°24'612.7
2017-May-27 09:00N 62°35' E 006°14'611.6
2017-May-27 08:30N 62°30' E 006°10'1 2.4
2017-May-27 08:00N 62°29' E 006°11'0 0.0
2017-May-27 07:30N 62°29' E 006°11'0 0.1
2017-May-27 07:00N 62°29' E 006°12'510.2
2017-May-27 06:30N 62°27' E 006°01'612.5
2017-May-27 06:00N 62°27' E 005°48'612.6
2017-May-27 05:30N 62°26' E 005°34'612.5
2017-May-27 05:00N 62°23' E 005°23'612.7
2017-May-27 04:30N 62°17' E 005°15'612.8
2017-May-27 04:00N 62°13' E 005°06'511.0
2017-May-27 03:30N 62°07' E 005°05'610.8
2017-May-27 03:00N 62°02' E 005°09'611.3
2017-May-27 02:30N 61°56' E 005°08'5 9.3
2017-May-27 02:00N 61°52' E 005°13'4 7.4
2017-May-27 01:30N 61°49' E 005°10'612.8
2017-May-27 01:00N 61°45' E 004°60'612.1
2017-May-27 00:30N 61°39' E 004°59'510.9
2017-May-27 00:00N 61°34' E 004°59'611.6
2017-May-26 23:30N 61°28' E 004°57'612.6
2017-May-26 23:00N 61°23' E 004°49'612.4
2017-May-26 22:30N 61°17' E 004°46'611.5
2017-May-26 21:59N 61°11' E 004°44'612.1
2017-May-26 21:30N 61°05' E 004°44'612.3
2017-May-26 21:00N 60°59' E 004°46'612.8
2017-May-26 20:30N 60°53' E 004°46'612.2
2017-May-26 20:00N 60°46' E 004°46'613.0
2017-May-26 19:30N 60°40' E 004°51'612.8
2017-May-26 19:00N 60°34' E 004°55'612.8
2017-May-26 18:30N 60°28' E 005°00'612.3
2017-May-26 18:00N 60°24' E 005°08'612.8
2017-May-26 17:30N 60°18' E 005°12'611.3
2017-May-26 17:00N 60°12' E 005°13'612.4
2017-May-26 16:30N 60°06' E 005°18'612.5
2017-May-26 16:00N 60°00' E 005°21'612.1
2017-May-26 15:30N 59°56' E 005°29'612.5
2017-May-26 15:00N 59°50' E 005°33'611.4
2017-May-26 14:30N 59°44' E 005°30'1212.1
2017-May-26 13:30N 59°35' E 005°15'611.5
2017-May-26 13:00N 59°29' E 005°13'610.9
2017-May-26 12:30N 59°24' E 005°16'5 9.5
2017-May-26 12:00N 59°20' E 005°19'612.1
2017-May-26 11:30N 59°14' E 005°21'612.6
2017-May-26 11:00N 59°08' E 005°21'612.5
2017-May-26 10:31N 59°01' E 005°20'612.0
2017-May-26 10:00N 58°55' E 005°21'611.3
2017-May-26 09:31N 58°50' E 005°22'611.9
2017-May-26 09:00N 58°44' E 005°23'611.6
2017-May-26 08:30N 58°38' E 005°24'611.8
2017-May-26 08:00N 58°32' E 005°24'612.0
2017-May-26 07:30N 58°26' E 005°25'611.9
2017-May-26 07:00N 58°20' E 005°26'31512.1
2017-May-25 04:55N 53°06' E 004°32'613.5
2017-May-25 04:29N 53°01' E 004°31'613.8
2017-May-25 04:01N 52°54' E 004°31'713.8
2017-May-25 03:30N 52°47' E 004°30'713.5
2017-May-25 03:00N 52°40' E 004°30'713.6
2017-May-25 02:30N 52°34' E 004°30'611.8
2017-May-25 02:00N 52°28' E 004°33'2 4.0
2017-May-25 01:30N 52°28' E 004°36'2 3.6
2017-May-25 01:00N 52°28' E 004°39'1 1.1
2017-May-25 00:30N 52°28' E 004°40'0 0.0
2017-May-25 00:00N 52°28' E 004°40'0 0.0
2017-May-24 23:30N 52°28' E 004°40'0 0.0
2017-May-24 22:59N 52°28' E 004°40'0 0.0
2017-May-24 22:29N 52°28' E 004°40'0 0.0
2017-May-24 21:59N 52°28' E 004°40'0 0.0
2017-May-24 21:30N 52°28' E 004°40'0 0.0
2017-May-24 21:00N 52°28' E 004°40'0 0.0
2017-May-24 20:30N 52°28' E 004°40'0 0.0
2017-May-24 20:01N 52°28' E 004°40'0 0.0
2017-May-24 19:25N 52°28' E 004°40'0 0.0
2017-May-24 18:58N 52°28' E 004°40'0 0.0
2017-May-24 18:28N 52°28' E 004°40'0 0.0
2017-May-24 17:59N 52°28' E 004°40'0 0.0
2017-May-24 17:29N 52°28' E 004°40'0 0.0
2017-May-24 16:59N 52°28' E 004°40'0 0.0
2017-May-24 16:30N 52°28' E 004°40'0 0.0
2017-May-24 16:00N 52°28' E 004°40'0 0.0
2017-May-24 15:30N 52°28' E 004°40'0 0.0
2017-May-24 14:58N 52°28' E 004°40'0 0.0
2017-May-24 14:28N 52°28' E 004°40'0 0.0
2017-May-24 13:26N 52°28' E 004°40'0 0.0
2017-May-24 12:59N 52°28' E 004°40'0 0.0
2017-May-24 12:29N 52°28' E 004°40'0 0.0
2017-May-24 11:59N 52°28' E 004°40'0 0.0
2017-May-24 11:30N 52°28' E 004°40'0 0.0
2017-May-24 11:00N 52°28' E 004°40'0 0.0
2017-May-24 10:30N 52°28' E 004°40'0 0.0
2017-May-24 09:58N 52°28' E 004°40'0 0.0
2017-May-24 09:28N 52°28' E 004°40'0 0.0
2017-May-24 08:58N 52°28' E 004°40'0 0.0
2017-May-24 08:29N 52°28' E 004°40'0 0.0
2017-May-24 07:59N 52°28' E 004°40'0 0.0
2017-May-24 07:29N 52°28' E 004°40'0 0.0
2017-May-24 07:00N 52°28' E 004°40'0 0.0
2017-May-24 06:30N 52°28' E 004°40'0 0.0
2017-May-24 06:00N 52°28' E 004°40'0 0.0
2017-May-24 05:28N 52°28' E 004°40'0 0.0
2017-May-24 04:58N 52°28' E 004°40'0 0.0
2017-May-24 04:28N 52°28' E 004°40'0 0.0
2017-May-24 03:59N 52°28' E 004°40'0 0.0
2017-May-24 03:29N 52°28' E 004°40'0 0.0
2017-May-24 02:59N 52°28' E 004°40'0 0.0
2017-May-24 02:29N 52°28' E 004°40'0 0.0
2017-May-24 02:00N 52°28' E 004°40'0 0.0
2017-May-24 01:30N 52°28' E 004°40'0 0.0
2017-May-24 01:00N 52°28' E 004°40'0 0.0
2017-May-24 00:28N 52°28' E 004°40'0 0.0
2017-May-23 23:58N 52°28' E 004°40'0 0.0
2017-May-23 23:28N 52°28' E 004°40'0 0.0
2017-May-23 22:59N 52°28' E 004°40'0 0.0
2017-May-23 22:29N 52°28' E 004°40'0 0.0
2017-May-23 21:59N 52°28' E 004°40'0 0.0
2017-May-23 21:30N 52°28' E 004°40'0 0.0
2017-May-23 21:00N 52°28' E 004°40'0 0.0
2017-May-23 20:30N 52°28' E 004°40'0 0.0
2017-May-23 19:58N 52°28' E 004°40'0 0.0
2017-May-23 19:30N 52°28' E 004°40'0 0.0
2017-May-23 19:00N 52°28' E 004°40'0 0.0
2017-May-23 18:30N 52°28' E 004°40'0 0.0
2017-May-23 18:00N 52°28' E 004°40'0 0.0
2017-May-23 17:30N 52°28' E 004°40'0 0.0
2017-May-23 17:00N 52°28' E 004°40'1 1.9
2017-May-23 16:30N 52°28' E 004°38'1 2.9
2017-May-23 16:00N 52°28' E 004°36'2 4.8
2017-May-23 15:30N 52°28' E 004°32'5 9.0
2017-May-23 15:00N 52°32' E 004°29'611.3
2017-May-23 14:30N 52°38' E 004°30'1110.8
2017-May-23 13:30N 52°48' E 004°31'510.3
2017-May-23 13:00N 52°54' E 004°31'810.7
2017-May-23 12:18N 53°01' E 004°32'512.0
2017-May-23 11:55N 53°06' E 004°33'710.7
2017-May-23 11:13N 53°13' E 004°29'32112.1
2017-May-22 08:45N 58°33' E 005°11'312.2
2017-May-22 08:30N 58°35' E 005°12'611.9
2017-May-22 08:01N 58°41' E 005°13'612.0
2017-May-22 07:30N 58°47' E 005°14'611.8
2017-May-22 07:00N 58°53' E 005°16'612.0
2017-May-22 06:30N 58°59' E 005°18'612.0
2017-May-22 06:00N 59°05' E 005°20'612.0
2017-May-22 05:30N 59°11' E 005°20'612.1
2017-May-22 05:00N 59°17' E 005°20'611.8
2017-May-22 04:30N 59°23' E 005°18'611.4
2017-May-22 04:00N 59°28' E 005°13'611.7
2017-May-22 03:30N 59°34' E 005°14'612.0
2017-May-22 03:00N 59°39' E 005°20'611.9
2017-May-22 02:30N 59°43' E 005°28'611.3
2017-May-22 02:00N 59°49' E 005°33'611.9
2017-May-22 01:30N 59°54' E 005°31'612.0
2017-May-22 01:00N 59°59' E 005°22'611.4
2017-May-22 00:30N 60°04' E 005°19'612.1
2017-May-22 00:00N 60°10' E 005°15'611.6
2017-May-21 23:30N 60°15' E 005°09'510.7
2017-May-21 22:59N 60°20' E 005°11'4 7.6
2017-May-21 22:30N 60°24' E 005°14'0 0.2
2017-May-21 21:59N 60°24' E 005°14'0 0.0
2017-May-21 21:30N 60°24' E 005°14'0 0.0
2017-May-21 21:00N 60°24' E 005°14'0 0.1
2017-May-21 20:30N 60°24' E 005°14'4 7.7
2017-May-21 20:00N 60°24' E 005°06'611.4
2017-May-21 19:30N 60°29' E 004°59'611.5
2017-May-21 19:00N 60°34' E 004°55'611.8
2017-May-21 18:30N 60°40' E 004°51'611.9
2017-May-21 18:00N 60°46' E 004°47'611.2
2017-May-21 17:29N 60°51' E 004°45'611.4
2017-May-21 17:00N 60°57' E 004°45'611.3
2017-May-21 16:30N 61°02' E 004°44'611.2
2017-May-21 16:00N 61°08' E 004°45'611.5
2017-May-21 15:30N 61°14' E 004°43'611.4
2017-May-21 15:00N 61°19' E 004°48'611.4
2017-May-21 14:30N 61°25' E 004°51'1010.4
2017-May-21 13:29N 61°34' E 004°58'511.0
2017-May-21 13:00N 61°40' E 004°58'511.1
2017-May-21 12:30N 61°45' E 005°01'611.3
2017-May-21 12:00N 61°49' E 005°10'4 7.7
2017-May-21 11:30N 61°52' E 005°15'510.1
2017-May-21 11:00N 61°56' E 005°07'611.2
2017-May-21 10:30N 62°01' E 005°09'612.2
2017-May-21 09:59N 62°07' E 005°05'5 9.8
2017-May-21 09:30N 62°12' E 005°06'510.1
2017-May-21 09:00N 62°15' E 005°15'510.7
2017-May-21 08:30N 62°17' E 005°25'611.8
2017-May-21 08:00N 62°19' E 005°38'5 9.0
2017-May-21 07:30N 62°21' E 005°46'611.4
2017-May-21 07:00N 62°26' E 005°54'611.8
2017-May-21 06:30N 62°27' E 006°06'2 3.4
2017-May-21 06:00N 62°28' E 006°08'0 0.0
2017-May-21 05:30N 62°28' E 006°08'0 0.0
2017-May-21 05:00N 62°28' E 006°08'1 2.0
2017-May-21 04:29N 62°27' E 006°09'1 2.9
2017-May-21 04:00N 62°28' E 006°08'0 0.1
2017-May-21 03:30N 62°28' E 006°08'0 0.0
2017-May-21 03:00N 62°28' E 006°08'2 3.4
2017-May-21 02:30N 62°29' E 006°11'1 2.5
2017-May-21 01:59N 62°29' E 006°14'0 0.2
2017-May-21 01:30N 62°29' E 006°13'4 7.0
2017-May-21 01:00N 62°29' E 006°21'0 0.4
2017-May-21 00:30N 62°28' E 006°21'0 0.0
2017-May-21 00:00N 62°28' E 006°21'0 0.0
2017-May-20 23:30N 62°28' E 006°21'1 1.3
2017-May-20 23:00N 62°29' E 006°22'2 3.2
2017-May-20 22:29N 62°30' E 006°24'0 0.0
2017-May-20 22:00N 62°30' E 006°24'0 0.0
2017-May-20 21:30N 62°30' E 006°24'0 0.0
2017-May-20 21:00N 62°30' E 006°24'0 0.0
2017-May-20 20:30N 62°30' E 006°24'0 0.0
2017-May-20 20:00N 62°30' E 006°24'0 0.0
2017-May-20 19:30N 62°30' E 006°24'0 0.0
2017-May-20 19:00N 62°30' E 006°24'0 0.0
2017-May-20 18:30N 62°30' E 006°24'0 0.0
2017-May-20 18:00N 62°30' E 006°24'0 0.5
2017-May-20 17:30N 62°30' E 006°24'510.1
2017-May-20 17:00N 62°29' E 006°13'4 8.8
2017-May-20 16:30N 62°34' E 006°11'612.5
2017-May-20 16:00N 62°38' E 006°21'612.5
2017-May-20 15:30N 62°43' E 006°29'612.9
2017-May-20 15:00N 62°48' E 006°37'612.7
2017-May-20 14:30N 62°53' E 006°45'5 5.4
2017-May-20 13:30N 62°53' E 006°57'0 0.0
2017-May-20 13:00N 62°53' E 006°57'0 0.0
2017-May-20 12:30N 62°53' E 006°57'0 0.2
2017-May-20 12:00N 62°53' E 006°57'4 8.0
2017-May-20 11:30N 62°56' E 006°51'510.9
2017-May-20 11:00N 62°60' E 006°59'612.4
2017-May-20 10:30N 63°02' E 007°12'612.6
2017-May-20 10:00N 63°04' E 007°25'612.5
2017-May-20 09:30N 63°08' E 007°36'612.7
2017-May-20 09:00N 63°11' E 007°48'713.0
2017-May-20 08:30N 63°15' E 008°01'713.3
2017-May-20 08:00N 63°18' E 008°14'612.7
2017-May-20 07:29N 63°23' E 008°24'612.9
2017-May-20 07:00N 63°25' E 008°36'712.9
2017-May-20 06:30N 63°27' E 008°50'613.0
2017-May-20 06:00N 63°30' E 009°04'612.6
2017-May-20 05:30N 63°33' E 009°16'611.9
2017-May-20 05:00N 63°39' E 009°16'612.0
2017-May-20 04:30N 63°45' E 009°16'611.8
2017-May-20 04:00N 63°51' E 009°19'612.6
2017-May-20 03:30N 63°56' E 009°27'612.3
2017-May-20 03:00N 64°02' E 009°33'612.1
2017-May-20 02:30N 64°07' E 009°40'612.0
2017-May-20 02:00N 64°12' E 009°47'611.9
2017-May-20 01:29N 64°17' E 009°55'612.0
2017-May-20 01:00N 64°21' E 010°04'612.0
2017-May-20 00:30N 64°26' E 010°14'612.2
2017-May-20 00:00N 64°30' E 010°24'612.7
2017-May-19 23:30N 64°35' E 010°33'612.4
2017-May-19 23:00N 64°40' E 010°43'612.5
2017-May-19 22:30N 64°43' E 010°55'612.5
2017-May-19 22:00N 64°47' E 011°05'611.3
2017-May-19 21:30N 64°52' E 011°14'0 0.0
2017-May-19 21:00N 64°52' E 011°14'0 0.0
2017-May-19 20:30N 64°52' E 011°14'0 0.0
2017-May-19 20:00N 64°52' E 011°14'1 2.3
2017-May-19 19:30N 64°52' E 011°17'611.6
2017-May-19 19:00N 64°56' E 011°27'611.8
2017-May-19 18:30N 65°00' E 011°37'611.7
2017-May-19 18:00N 65°05' E 011°46'612.1
2017-May-19 17:30N 65°10' E 011°51'612.2
2017-May-19 17:00N 65°16' E 011°57'612.1
2017-May-19 16:30N 65°21' E 012°03'510.6
2017-May-19 16:00N 65°26' E 011°56'611.6
2017-May-19 15:30N 65°31' E 012°02'612.0
2017-May-19 15:00N 65°36' E 012°10'1212.3
2017-May-19 14:00N 65°47' E 012°20'612.4
2017-May-19 13:30N 65°54' E 012°22'612.0
2017-May-19 13:00N 65°59' E 012°29'612.4
2017-May-19 12:30N 66°04' E 012°38'612.4
2017-May-19 12:00N 66°09' E 012°48'612.3
2017-May-19 11:30N 66°14' E 012°54'612.4
2017-May-19 11:00N 66°20' E 012°57'712.5
2017-May-19 10:28N 66°27' E 012°59'611.8
2017-May-19 10:00N 66°32' E 012°58'510.2
2017-May-19 09:30N 66°37' E 013°04'612.5
2017-May-19 09:00N 66°43' E 013°10'612.5
2017-May-19 08:29N 66°49' E 013°15'611.7
2017-May-19 08:00N 66°53' E 013°24'510.5
2017-May-19 07:30N 66°58' E 013°30'612.0
2017-May-19 07:00N 67°01' E 013°43'612.0
2017-May-19 06:30N 67°05' E 013°56'611.8
2017-May-19 06:00N 67°10' E 014°03'612.1
2017-May-19 05:30N 67°15' E 014°11'612.4
2017-May-19 05:00N 67°20' E 014°20'611.9
2017-May-19 04:30N 67°25' E 014°27'612.3
2017-May-19 04:00N 67°31' E 014°21'612.4
2017-May-19 03:30N 67°38' E 014°19'612.0
2017-May-19 03:00N 67°43' E 014°16'612.3
2017-May-19 02:30N 67°49' E 014°23'612.2
2017-May-19 02:00N 67°54' E 014°30'612.4
2017-May-19 01:30N 67°60' E 014°37'612.3
2017-May-19 00:59N 68°06' E 014°45'612.0
2017-May-19 00:30N 68°11' E 014°52'612.4
2017-May-19 00:00N 68°17' E 014°58'612.0
2017-May-18 23:30N 68°22' E 015°03'612.6
2017-May-18 23:00N 68°28' E 015°12'4 8.9
2017-May-18 22:30N 68°32' E 015°09'611.9
2017-May-18 22:00N 68°37' E 015°18'511.1
2017-May-18 21:30N 68°42' E 015°25'0 0.1
2017-May-18 21:00N 68°42' E 015°25'0 0.0
2017-May-18 20:30N 68°42' E 015°25'0 0.0
2017-May-18 20:00N 68°42' E 015°25'0 0.0
2017-May-18 19:30N 68°42' E 015°25'0 0.0
2017-May-18 19:00N 68°42' E 015°25'0 0.0
2017-May-18 18:30N 68°42' E 015°25'0 0.0
2017-May-18 17:59N 68°42' E 015°25'0 0.0
2017-May-18 17:29N 68°42' E 015°25'0 0.0
2017-May-18 17:00N 68°42' E 015°25'1 2.5
2017-May-18 16:30N 68°43' E 015°26'612.0
2017-May-18 15:59N 68°49' E 015°27'612.1
2017-May-18 15:30N 68°55' E 015°35'5 9.7
2017-May-18 15:00N 68°59' E 015°43'5 9.8
2017-May-18 14:30N 68°59' E 015°56'1211.7
2017-May-18 13:30N 68°53' E 016°25'510.4
2017-May-18 13:00N 68°53' E 016°39'611.9
2017-May-18 12:30N 68°56' E 016°54'611.9
2017-May-18 12:00N 68°59' E 017°08'510.9
2017-May-18 11:30N 69°03' E 017°20'511.0
2017-May-18 11:00N 69°06' E 017°31'611.5
2017-May-18 10:29N 69°09' E 017°46'511.4
2017-May-18 10:00N 69°11' E 018°00'5 9.5
2017-May-18 09:30N 69°16' E 017°58'510.6
2017-May-18 09:00N 69°21' E 018°04'  

Dump ship's entire track history